sensor_id;sensor_type;location;lat;lon;timestamp;temperature;humidity
16404;DHT22;8311;50.158;8.642;2023-07-13T00:02:20;27.60;43.30
16404;DHT22;8311;50.158;8.642;2023-07-13T00:05:13;27.50;43.50
16404;DHT22;8311;50.158;8.642;2023-07-13T00:08:06;27.50;43.60
16404;DHT22;8311;50.158;8.642;2023-07-13T00:11:00;27.50;43.60
16404;DHT22;8311;50.158;8.642;2023-07-13T00:13:54;27.50;43.20
16404;DHT22;8311;50.158;8.642;2023-07-13T00:16:49;27.50;43.50
16404;DHT22;8311;50.158;8.642;2023-07-13T00:19:43;27.50;43.40
16404;DHT22;8311;50.158;8.642;2023-07-13T00:22:37;27.50;43.30
16404;DHT22;8311;50.158;8.642;2023-07-13T00:25:30;27.50;43.20
16404;DHT22;8311;50.158;8.642;2023-07-13T00:28:23;27.50;43.30
16404;DHT22;8311;50.158;8.642;2023-07-13T00:31:16;27.50;43.10
16404;DHT22;8311;50.158;8.642;2023-07-13T00:34:10;27.50;43.30
16404;DHT22;8311;50.158;8.642;2023-07-13T00:37:05;27.50;43.30
16404;DHT22;8311;50.158;8.642;2023-07-13T00:39:59;27.50;43.30
16404;DHT22;8311;50.158;8.642;2023-07-13T00:42:52;27.50;43.40
16404;DHT22;8311;50.158;8.642;2023-07-13T00:49:17;27.50;43.60
16404;DHT22;8311;50.158;8.642;2023-07-13T00:52:13;27.50;43.40
16404;DHT22;8311;50.158;8.642;2023-07-13T00:55:07;27.50;43.50
16404;DHT22;8311;50.158;8.642;2023-07-13T00:58:02;27.50;43.30
16404;DHT22;8311;50.158;8.642;2023-07-13T01:00:56;27.50;43.10
16404;DHT22;8311;50.158;8.642;2023-07-13T01:03:49;27.50;43.30
16404;DHT22;8311;50.158;8.642;2023-07-13T01:06:44;27.50;43.20
16404;DHT22;8311;50.158;8.642;2023-07-13T01:09:39;27.50;42.70
16404;DHT22;8311;50.158;8.642;2023-07-13T01:12:32;27.50;42.90
16404;DHT22;8311;50.158;8.642;2023-07-13T01:15:35;27.50;42.60
16404;DHT22;8311;50.158;8.642;2023-07-13T01:18:29;27.50;43.10
16404;DHT22;8311;50.158;8.642;2023-07-13T01:21:25;27.50;42.50
16404;DHT22;8311;50.158;8.642;2023-07-13T01:24:19;27.50;42.70
16404;DHT22;8311;50.158;8.642;2023-07-13T01:27:15;27.50;43.00
16404;DHT22;8311;50.158;8.642;2023-07-13T01:30:10;27.50;42.30
16404;DHT22;8311;50.158;8.642;2023-07-13T01:33:03;27.50;42.40
16404;DHT22;8311;50.158;8.642;2023-07-13T01:35:57;27.50;42.50
16404;DHT22;8311;50.158;8.642;2023-07-13T01:38:52;27.50;42.50
16404;DHT22;8311;50.158;8.642;2023-07-13T01:41:46;27.50;42.60
16404;DHT22;8311;50.158;8.642;2023-07-13T01:44:40;27.50;42.60
16404;DHT22;8311;50.158;8.642;2023-07-13T01:47:33;27.50;42.50
16404;DHT22;8311;50.158;8.642;2023-07-13T01:50:27;27.50;42.50
16404;DHT22;8311;50.158;8.642;2023-07-13T01:53:20;27.50;42.50
16404;DHT22;8311;50.158;8.642;2023-07-13T01:56:15;27.50;42.60
16404;DHT22;8311;50.158;8.642;2023-07-13T01:59:08;27.50;42.60
16404;DHT22;8311;50.158;8.642;2023-07-13T02:02:04;27.50;42.60
16404;DHT22;8311;50.158;8.642;2023-07-13T02:04:58;27.50;42.50
16404;DHT22;8311;50.158;8.642;2023-07-13T02:07:51;27.50;42.60
16404;DHT22;8311;50.158;8.642;2023-07-13T02:10:44;27.40;42.90
16404;DHT22;8311;50.158;8.642;2023-07-13T02:13:39;27.40;42.40
16404;DHT22;8311;50.158;8.642;2023-07-13T02:16:32;27.50;42.60
16404;DHT22;8311;50.158;8.642;2023-07-13T02:19:26;27.50;42.50
16404;DHT22;8311;50.158;8.642;2023-07-13T02:22:20;27.50;42.50
16404;DHT22;8311;50.158;8.642;2023-07-13T02:25:13;27.40;42.60
16404;DHT22;8311;50.158;8.642;2023-07-13T02:28:07;27.50;42.50
16404;DHT22;8311;50.158;8.642;2023-07-13T02:31:08;27.40;42.50
16404;DHT22;8311;50.158;8.642;2023-07-13T02:34:01;27.40;42.60
16404;DHT22;8311;50.158;8.642;2023-07-13T02:36:54;27.50;42.70
16404;DHT22;8311;50.158;8.642;2023-07-13T02:39:47;27.40;42.50
16404;DHT22;8311;50.158;8.642;2023-07-13T02:42:41;27.50;42.40
16404;DHT22;8311;50.158;8.642;2023-07-13T02:45:34;27.40;42.30
16404;DHT22;8311;50.158;8.642;2023-07-13T02:48:28;27.40;42.50
16404;DHT22;8311;50.158;8.642;2023-07-13T02:51:21;27.40;42.90
16404;DHT22;8311;50.158;8.642;2023-07-13T02:54:14;27.40;42.40
16404;DHT22;8311;50.158;8.642;2023-07-13T02:57:08;27.40;42.40
16404;DHT22;8311;50.158;8.642;2023-07-13T03:00:03;27.50;42.50
16404;DHT22;8311;50.158;8.642;2023-07-13T03:02:58;27.40;42.40
16404;DHT22;8311;50.158;8.642;2023-07-13T03:06:00;27.40;42.50
16404;DHT22;8311;50.158;8.642;2023-07-13T03:08:55;27.40;42.40
16404;DHT22;8311;50.158;8.642;2023-07-13T03:11:48;27.40;42.50
16404;DHT22;8311;50.158;8.642;2023-07-13T03:14:41;27.40;42.50
16404;DHT22;8311;50.158;8.642;2023-07-13T03:17:35;27.40;42.30
16404;DHT22;8311;50.158;8.642;2023-07-13T03:20:28;27.40;42.50
16404;DHT22;8311;50.158;8.642;2023-07-13T03:23:23;27.40;42.90
16404;DHT22;8311;50.158;8.642;2023-07-13T03:26:18;27.40;42.70
16404;DHT22;8311;50.158;8.642;2023-07-13T03:29:11;27.40;42.50
16404;DHT22;8311;50.158;8.642;2023-07-13T03:32:05;27.40;42.40
16404;DHT22;8311;50.158;8.642;2023-07-13T03:34:58;27.40;42.40
16404;DHT22;8311;50.158;8.642;2023-07-13T03:37:51;27.40;43.00
16404;DHT22;8311;50.158;8.642;2023-07-13T03:40:46;27.40;42.40
16404;DHT22;8311;50.158;8.642;2023-07-13T03:43:39;27.40;42.60
16404;DHT22;8311;50.158;8.642;2023-07-13T03:46:32;27.40;42.40
16404;DHT22;8311;50.158;8.642;2023-07-13T03:49:26;27.40;42.50
16404;DHT22;8311;50.158;8.642;2023-07-13T03:52:19;27.40;42.20
16404;DHT22;8311;50.158;8.642;2023-07-13T03:55:12;27.40;42.30
16404;DHT22;8311;50.158;8.642;2023-07-13T03:58:31;27.40;42.20
16404;DHT22;8311;50.158;8.642;2023-07-13T04:01:24;27.40;42.40
16404;DHT22;8311;50.158;8.642;2023-07-13T04:04:18;27.40;42.00
16404;DHT22;8311;50.158;8.642;2023-07-13T04:07:12;27.40;42.30
16404;DHT22;8311;50.158;8.642;2023-07-13T04:10:06;27.40;42.00
16404;DHT22;8311;50.158;8.642;2023-07-13T04:12:59;27.30;41.90
16404;DHT22;8311;50.158;8.642;2023-07-13T04:15:54;27.40;41.80
16404;DHT22;8311;50.158;8.642;2023-07-13T04:18:48;27.30;41.90
16404;DHT22;8311;50.158;8.642;2023-07-13T04:21:41;27.30;41.90
16404;DHT22;8311;50.158;8.642;2023-07-13T04:24:34;27.30;41.80
16404;DHT22;8311;50.158;8.642;2023-07-13T04:27:27;27.40;41.80
16404;DHT22;8311;50.158;8.642;2023-07-13T04:30:21;27.30;41.70
16404;DHT22;8311;50.158;8.642;2023-07-13T04:33:16;27.30;42.20
16404;DHT22;8311;50.158;8.642;2023-07-13T04:36:10;27.30;42.40
16404;DHT22;8311;50.158;8.642;2023-07-13T04:39:03;27.30;41.80
16404;DHT22;8311;50.158;8.642;2023-07-13T04:41:56;27.30;41.90
16404;DHT22;8311;50.158;8.642;2023-07-13T04:44:50;27.30;42.20
16404;DHT22;8311;50.158;8.642;2023-07-13T04:47:43;27.30;41.90
16404;DHT22;8311;50.158;8.642;2023-07-13T04:50:39;27.40;42.00
16404;DHT22;8311;50.158;8.642;2023-07-13T04:53:33;27.30;42.20
16404;DHT22;8311;50.158;8.642;2023-07-13T04:56:26;27.30;42.00
16404;DHT22;8311;50.158;8.642;2023-07-13T04:59:19;27.30;42.10
16404;DHT22;8311;50.158;8.642;2023-07-13T05:02:12;27.30;41.90
16404;DHT22;8311;50.158;8.642;2023-07-13T05:05:06;27.30;41.70
16404;DHT22;8311;50.158;8.642;2023-07-13T05:08:05;27.30;41.80
16404;DHT22;8311;50.158;8.642;2023-07-13T05:11:00;27.30;41.80
16404;DHT22;8311;50.158;8.642;2023-07-13T05:13:53;27.30;41.60
16404;DHT22;8311;50.158;8.642;2023-07-13T05:16:46;27.30;41.80
16404;DHT22;8311;50.158;8.642;2023-07-13T05:19:39;27.30;41.80
16404;DHT22;8311;50.158;8.642;2023-07-13T05:22:32;27.30;42.30
16404;DHT22;8311;50.158;8.642;2023-07-13T05:25:28;27.30;42.10
16404;DHT22;8311;50.158;8.642;2023-07-13T05:28:21;27.30;41.30
16404;DHT22;8311;50.158;8.642;2023-07-13T05:31:15;27.30;41.80
16404;DHT22;8311;50.158;8.642;2023-07-13T05:34:08;27.30;41.30
16404;DHT22;8311;50.158;8.642;2023-07-13T05:37:02;27.30;42.00
16404;DHT22;8311;50.158;8.642;2023-07-13T05:39:55;27.30;41.60
16404;DHT22;8311;50.158;8.642;2023-07-13T05:42:50;27.30;41.50
16404;DHT22;8311;50.158;8.642;2023-07-13T05:45:43;27.20;41.60
16404;DHT22;8311;50.158;8.642;2023-07-13T05:48:39;27.30;41.20
16404;DHT22;8311;50.158;8.642;2023-07-13T05:51:32;27.30;40.30
16404;DHT22;8311;50.158;8.642;2023-07-13T05:54:26;27.20;40.60
16404;DHT22;8311;50.158;8.642;2023-07-13T05:57:19;27.20;39.90
16404;DHT22;8311;50.158;8.642;2023-07-13T06:00:15;27.20;40.30
16404;DHT22;8311;50.158;8.642;2023-07-13T06:03:08;27.20;39.80
16404;DHT22;8311;50.158;8.642;2023-07-13T06:06:01;27.20;40.30
16404;DHT22;8311;50.158;8.642;2023-07-13T06:08:54;27.20;40.30
16404;DHT22;8311;50.158;8.642;2023-07-13T06:11:47;27.20;40.00
16404;DHT22;8311;50.158;8.642;2023-07-13T06:14:40;27.20;39.80
16404;DHT22;8311;50.158;8.642;2023-07-13T06:17:35;27.20;39.90
16404;DHT22;8311;50.158;8.642;2023-07-13T06:20:28;27.10;39.70
16404;DHT22;8311;50.158;8.642;2023-07-13T06:23:22;27.20;39.30
16404;DHT22;8311;50.158;8.642;2023-07-13T06:26:17;27.10;39.20
16404;DHT22;8311;50.158;8.642;2023-07-13T06:29:10;27.20;39.40
16404;DHT22;8311;50.158;8.642;2023-07-13T06:32:06;27.10;39.30
16404;DHT22;8311;50.158;8.642;2023-07-13T06:35:01;27.10;39.30
16404;DHT22;8311;50.158;8.642;2023-07-13T06:37:54;27.10;38.90
16404;DHT22;8311;50.158;8.642;2023-07-13T06:40:48;27.10;38.50
16404;DHT22;8311;50.158;8.642;2023-07-13T06:43:41;27.10;39.00
16404;DHT22;8311;50.158;8.642;2023-07-13T06:46:34;27.10;39.10
16404;DHT22;8311;50.158;8.642;2023-07-13T06:49:28;27.10;38.90
16404;DHT22;8311;50.158;8.642;2023-07-13T06:52:23;27.10;38.70
16404;DHT22;8311;50.158;8.642;2023-07-13T06:55:16;27.10;38.30
16404;DHT22;8311;50.158;8.642;2023-07-13T06:58:09;27.10;39.00
16404;DHT22;8311;50.158;8.642;2023-07-13T07:01:02;27.10;38.20
16404;DHT22;8311;50.158;8.642;2023-07-13T07:03:58;27.10;38.90
16404;DHT22;8311;50.158;8.642;2023-07-13T07:06:51;27.10;38.90
16404;DHT22;8311;50.158;8.642;2023-07-13T07:09:48;27.00;38.60
16404;DHT22;8311;50.158;8.642;2023-07-13T07:12:41;27.10;38.90
16404;DHT22;8311;50.158;8.642;2023-07-13T07:15:35;27.00;38.60
16404;DHT22;8311;50.158;8.642;2023-07-13T07:18:28;27.00;38.70
16404;DHT22;8311;50.158;8.642;2023-07-13T07:21:21;27.00;39.00
16404;DHT22;8311;50.158;8.642;2023-07-13T07:24:15;27.00;38.80
16404;DHT22;8311;50.158;8.642;2023-07-13T07:27:10;27.00;39.00
16404;DHT22;8311;50.158;8.642;2023-07-13T07:30:07;27.00;38.60
16404;DHT22;8311;50.158;8.642;2023-07-13T07:33:03;26.90;36.50
16404;DHT22;8311;50.158;8.642;2023-07-13T07:35:57;26.70;36.30
16404;DHT22;8311;50.158;8.642;2023-07-13T07:38:53;26.50;36.10
16404;DHT22;8311;50.158;8.642;2023-07-13T07:41:46;26.20;36.20
16404;DHT22;8311;50.158;8.642;2023-07-13T07:44:44;26.10;36.90
16404;DHT22;8311;50.158;8.642;2023-07-13T07:47:37;26.10;36.40
16404;DHT22;8311;50.158;8.642;2023-07-13T07:50:32;26.20;37.10
16404;DHT22;8311;50.158;8.642;2023-07-13T07:53:25;26.10;36.80
16404;DHT22;8311;50.158;8.642;2023-07-13T07:56:19;26.30;38.20
16404;DHT22;8311;50.158;8.642;2023-07-13T07:59:15;26.30;38.10
16404;DHT22;8311;50.158;8.642;2023-07-13T08:02:13;26.40;37.70
16404;DHT22;8311;50.158;8.642;2023-07-13T08:05:26;26.50;37.80
16404;DHT22;8311;50.158;8.642;2023-07-13T08:08:22;26.50;38.00
16404;DHT22;8311;50.158;8.642;2023-07-13T08:11:17;26.50;37.70
16404;DHT22;8311;50.158;8.642;2023-07-13T08:14:13;26.50;37.80
16404;DHT22;8311;50.158;8.642;2023-07-13T08:17:07;26.60;37.80
16404;DHT22;8311;50.158;8.642;2023-07-13T08:20:03;26.50;36.60
16404;DHT22;8311;50.158;8.642;2023-07-13T08:22:57;26.50;37.60
16404;DHT22;8311;50.158;8.642;2023-07-13T08:25:51;26.60;37.90
16404;DHT22;8311;50.158;8.642;2023-07-13T08:28:44;26.60;38.40
16404;DHT22;8311;50.158;8.642;2023-07-13T08:31:38;26.60;37.40
16404;DHT22;8311;50.158;8.642;2023-07-13T08:34:31;26.60;37.40
16404;DHT22;8311;50.158;8.642;2023-07-13T08:37:26;26.60;35.70
16404;DHT22;8311;50.158;8.642;2023-07-13T08:40:24;26.50;36.10
16404;DHT22;8311;50.158;8.642;2023-07-13T08:43:22;26.60;37.40
16404;DHT22;8311;50.158;8.642;2023-07-13T08:46:25;26.60;37.30
16404;DHT22;8311;50.158;8.642;2023-07-13T08:49:22;26.60;37.30
16404;DHT22;8311;50.158;8.642;2023-07-13T08:52:28;26.60;36.90
16404;DHT22;8311;50.158;8.642;2023-07-13T08:55:28;26.60;35.40
16404;DHT22;8311;50.158;8.642;2023-07-13T08:58:23;26.60;36.40
16404;DHT22;8311;50.158;8.642;2023-07-13T09:01:27;26.50;37.00
16404;DHT22;8311;50.158;8.642;2023-07-13T09:04:23;26.50;36.10
16404;DHT22;8311;50.158;8.642;2023-07-13T09:07:33;26.50;35.60
16404;DHT22;8311;50.158;8.642;2023-07-13T09:10:29;26.60;36.10
16404;DHT22;8311;50.158;8.642;2023-07-13T09:13:28;26.60;36.30
16404;DHT22;8311;50.158;8.642;2023-07-13T09:16:25;26.60;35.90
16404;DHT22;8311;50.158;8.642;2023-07-13T09:19:23;26.60;35.70
16404;DHT22;8311;50.158;8.642;2023-07-13T09:22:20;26.50;36.10
16404;DHT22;8311;50.158;8.642;2023-07-13T09:25:23;26.60;37.10
16404;DHT22;8311;50.158;8.642;2023-07-13T09:28:21;26.60;37.20
16404;DHT22;8311;50.158;8.642;2023-07-13T09:31:19;26.60;38.40
16404;DHT22;8311;50.158;8.642;2023-07-13T09:34:13;26.70;38.70
16404;DHT22;8311;50.158;8.642;2023-07-13T09:37:06;26.70;39.00
16404;DHT22;8311;50.158;8.642;2023-07-13T09:40:01;26.80;39.20
16404;DHT22;8311;50.158;8.642;2023-07-13T09:42:59;26.70;39.20
16404;DHT22;8311;50.158;8.642;2023-07-13T09:45:53;26.70;39.40
16404;DHT22;8311;50.158;8.642;2023-07-13T09:48:46;26.80;39.50
16404;DHT22;8311;50.158;8.642;2023-07-13T09:51:42;26.80;39.50
16404;DHT22;8311;50.158;8.642;2023-07-13T09:54:37;26.80;39.60
16404;DHT22;8311;50.158;8.642;2023-07-13T09:57:30;26.90;39.60
16404;DHT22;8311;50.158;8.642;2023-07-13T10:00:44;26.80;39.60
16404;DHT22;8311;50.158;8.642;2023-07-13T10:03:53;26.80;39.50
16404;DHT22;8311;50.158;8.642;2023-07-13T10:06:47;26.80;39.40
16404;DHT22;8311;50.158;8.642;2023-07-13T10:09:43;26.80;39.10
16404;DHT22;8311;50.158;8.642;2023-07-13T10:12:38;26.90;39.40
16404;DHT22;8311;50.158;8.642;2023-07-13T10:15:32;26.90;39.10
16404;DHT22;8311;50.158;8.642;2023-07-13T10:18:29;26.80;39.00
16404;DHT22;8311;50.158;8.642;2023-07-13T10:21:27;26.80;39.10
16404;DHT22;8311;50.158;8.642;2023-07-13T10:24:30;26.90;39.20
16404;DHT22;8311;50.158;8.642;2023-07-13T10:27:29;26.80;39.10
16404;DHT22;8311;50.158;8.642;2023-07-13T10:30:31;26.90;39.10
16404;DHT22;8311;50.158;8.642;2023-07-13T10:33:27;26.90;39.30
16404;DHT22;8311;50.158;8.642;2023-07-13T10:36:28;26.90;39.30
16404;DHT22;8311;50.158;8.642;2023-07-13T10:39:26;26.90;39.40
16404;DHT22;8311;50.158;8.642;2023-07-13T10:42:33;26.90;39.40
16404;DHT22;8311;50.158;8.642;2023-07-13T10:45:34;26.90;39.50
16404;DHT22;8311;50.158;8.642;2023-07-13T10:48:30;26.90;39.60
16404;DHT22;8311;50.158;8.642;2023-07-13T10:51:25;26.90;39.70
16404;DHT22;8311;50.158;8.642;2023-07-13T10:54:20;26.90;39.80
16404;DHT22;8311;50.158;8.642;2023-07-13T10:57:17;26.90;39.80
16404;DHT22;8311;50.158;8.642;2023-07-13T11:00:17;26.90;40.00
16404;DHT22;8311;50.158;8.642;2023-07-13T11:03:14;26.90;40.60
16404;DHT22;8311;50.158;8.642;2023-07-13T11:06:12;26.90;40.00
16404;DHT22;8311;50.158;8.642;2023-07-13T11:09:19;26.90;40.00
16404;DHT22;8311;50.158;8.642;2023-07-13T11:12:48;26.90;40.10
16404;DHT22;8311;50.158;8.642;2023-07-13T11:15:45;26.90;40.10
16404;DHT22;8311;50.158;8.642;2023-07-13T11:18:44;26.90;40.10
16404;DHT22;8311;50.158;8.642;2023-07-13T11:22:02;26.90;40.00
16404;DHT22;8311;50.158;8.642;2023-07-13T11:25:00;27.00;40.20
16404;DHT22;8311;50.158;8.642;2023-07-13T11:28:07;26.90;40.10
16404;DHT22;8311;50.158;8.642;2023-07-13T11:31:15;26.90;40.20
16404;DHT22;8311;50.158;8.642;2023-07-13T11:34:13;26.90;40.20
16404;DHT22;8311;50.158;8.642;2023-07-13T11:37:14;26.90;40.30
16404;DHT22;8311;50.158;8.642;2023-07-13T11:40:12;26.90;40.40
16404;DHT22;8311;50.158;8.642;2023-07-13T11:43:07;26.90;40.40
16404;DHT22;8311;50.158;8.642;2023-07-13T11:46:14;26.90;40.40
16404;DHT22;8311;50.158;8.642;2023-07-13T11:49:11;26.90;40.50
16404;DHT22;8311;50.158;8.642;2023-07-13T11:52:15;26.90;40.60
16404;DHT22;8311;50.158;8.642;2023-07-13T11:55:14;26.90;40.60
16404;DHT22;8311;50.158;8.642;2023-07-13T11:58:10;26.90;40.60
16404;DHT22;8311;50.158;8.642;2023-07-13T12:01:04;26.90;40.60
16404;DHT22;8311;50.158;8.642;2023-07-13T12:03:57;27.00;40.80
16404;DHT22;8311;50.158;8.642;2023-07-13T12:06:56;26.90;40.80
16404;DHT22;8311;50.158;8.642;2023-07-13T12:09:52;26.90;40.80
16404;DHT22;8311;50.158;8.642;2023-07-13T12:12:47;26.90;40.90
16404;DHT22;8311;50.158;8.642;2023-07-13T12:15:43;26.90;40.90
16404;DHT22;8311;50.158;8.642;2023-07-13T12:18:39;26.90;41.00
16404;DHT22;8311;50.158;8.642;2023-07-13T12:21:36;27.00;41.10
16404;DHT22;8311;50.158;8.642;2023-07-13T12:24:40;26.90;41.10
16404;DHT22;8311;50.158;8.642;2023-07-13T12:27:35;26.90;41.10
16404;DHT22;8311;50.158;8.642;2023-07-13T12:30:32;26.90;41.10
16404;DHT22;8311;50.158;8.642;2023-07-13T12:33:29;26.90;41.10
16404;DHT22;8311;50.158;8.642;2023-07-13T12:36:24;26.90;41.20
16404;DHT22;8311;50.158;8.642;2023-07-13T12:39:22;26.90;41.20
16404;DHT22;8311;50.158;8.642;2023-07-13T12:42:21;26.90;41.30
16404;DHT22;8311;50.158;8.642;2023-07-13T12:45:20;26.90;41.30
16404;DHT22;8311;50.158;8.642;2023-07-13T12:48:16;27.00;41.40
16404;DHT22;8311;50.158;8.642;2023-07-13T12:51:22;26.90;41.40
16404;DHT22;8311;50.158;8.642;2023-07-13T12:54:18;26.90;41.40
16404;DHT22;8311;50.158;8.642;2023-07-13T12:57:16;26.90;41.40
16404;DHT22;8311;50.158;8.642;2023-07-13T13:00:23;26.90;41.40
16404;DHT22;8311;50.158;8.642;2023-07-13T13:03:24;26.90;41.50
16404;DHT22;8311;50.158;8.642;2023-07-13T13:06:21;26.90;41.50
16404;DHT22;8311;50.158;8.642;2023-07-13T13:09:17;26.90;41.50
16404;DHT22;8311;50.158;8.642;2023-07-13T13:12:11;26.90;41.60
16404;DHT22;8311;50.158;8.642;2023-07-13T13:15:07;26.90;41.60
16404;DHT22;8311;50.158;8.642;2023-07-13T13:18:02;26.90;41.60
16404;DHT22;8311;50.158;8.642;2023-07-13T13:20:56;26.90;41.60
16404;DHT22;8311;50.158;8.642;2023-07-13T13:23:48;26.90;41.60
16404;DHT22;8311;50.158;8.642;2023-07-13T13:26:43;27.00;41.70
16404;DHT22;8311;50.158;8.642;2023-07-13T13:29:39;26.90;41.60
16404;DHT22;8311;50.158;8.642;2023-07-13T13:32:32;26.90;41.70
16404;DHT22;8311;50.158;8.642;2023-07-13T13:35:27;26.90;41.70
16404;DHT22;8311;50.158;8.642;2023-07-13T13:38:25;26.90;41.70
16404;DHT22;8311;50.158;8.642;2023-07-13T13:41:19;26.90;41.70
16404;DHT22;8311;50.158;8.642;2023-07-13T13:44:17;26.90;41.80
16404;DHT22;8311;50.158;8.642;2023-07-13T13:47:29;26.90;41.80
16404;DHT22;8311;50.158;8.642;2023-07-13T13:50:22;26.90;41.80
16404;DHT22;8311;50.158;8.642;2023-07-13T13:53:17;26.90;41.80
16404;DHT22;8311;50.158;8.642;2023-07-13T13:56:11;26.80;36.10
16404;DHT22;8311;50.158;8.642;2023-07-13T13:59:05;26.70;35.30
16404;DHT22;8311;50.158;8.642;2023-07-13T14:01:58;26.50;35.10
16404;DHT22;8311;50.158;8.642;2023-07-13T14:04:56;26.50;35.90
16404;DHT22;8311;50.158;8.642;2023-07-13T14:07:50;26.60;40.70
16404;DHT22;8311;50.158;8.642;2023-07-13T14:10:49;26.50;37.50
16404;DHT22;8311;50.158;8.642;2023-07-13T14:13:45;26.50;38.70
16404;DHT22;8311;50.158;8.642;2023-07-13T14:16:40;26.60;39.10
16404;DHT22;8311;50.158;8.642;2023-07-13T14:19:35;26.60;39.70
16404;DHT22;8311;50.158;8.642;2023-07-13T14:22:28;26.70;40.40
16404;DHT22;8311;50.158;8.642;2023-07-13T14:25:21;26.70;41.00
16404;DHT22;8311;50.158;8.642;2023-07-13T14:28:20;26.80;41.70
16404;DHT22;8311;50.158;8.642;2023-07-13T14:31:15;26.80;42.20
16404;DHT22;8311;50.158;8.642;2023-07-13T14:34:10;26.80;41.80
16404;DHT22;8311;50.158;8.642;2023-07-13T14:37:04;26.80;41.50
16404;DHT22;8311;50.158;8.642;2023-07-13T14:40:01;26.90;41.70
16404;DHT22;8311;50.158;8.642;2023-07-13T14:42:55;26.80;41.20
16404;DHT22;8311;50.158;8.642;2023-07-13T14:45:50;26.90;41.20
16404;DHT22;8311;50.158;8.642;2023-07-13T14:48:43;26.90;40.70
16404;DHT22;8311;50.158;8.642;2023-07-13T14:51:36;26.90;40.90
16404;DHT22;8311;50.158;8.642;2023-07-13T14:54:30;26.90;40.30
16404;DHT22;8311;50.158;8.642;2023-07-13T14:57:23;26.90;40.20
16404;DHT22;8311;50.158;8.642;2023-07-13T15:00:18;26.90;40.20
16404;DHT22;8311;50.158;8.642;2023-07-13T15:03:19;26.90;39.90
16404;DHT22;8311;50.158;8.642;2023-07-13T15:06:15;26.90;39.60
16404;DHT22;8311;50.158;8.642;2023-07-13T15:09:11;26.90;39.30
16404;DHT22;8311;50.158;8.642;2023-07-13T15:12:05;26.90;39.50
16404;DHT22;8311;50.158;8.642;2023-07-13T15:14:59;26.90;39.30
16404;DHT22;8311;50.158;8.642;2023-07-13T15:17:52;26.90;39.30
16404;DHT22;8311;50.158;8.642;2023-07-13T15:20:47;26.90;39.20
16404;DHT22;8311;50.158;8.642;2023-07-13T15:23:41;26.90;39.10
16404;DHT22;8311;50.158;8.642;2023-07-13T15:26:35;26.90;39.60
16404;DHT22;8311;50.158;8.642;2023-07-13T15:29:29;26.90;39.00
16404;DHT22;8311;50.158;8.642;2023-07-13T15:32:23;26.90;39.10
16404;DHT22;8311;50.158;8.642;2023-07-13T15:35:20;26.90;39.10
16404;DHT22;8311;50.158;8.642;2023-07-13T15:38:17;26.90;39.00
16404;DHT22;8311;50.158;8.642;2023-07-13T15:41:16;26.90;39.10
16404;DHT22;8311;50.158;8.642;2023-07-13T15:44:22;26.90;39.30
16404;DHT22;8311;50.158;8.642;2023-07-13T15:47:16;26.90;39.00
16404;DHT22;8311;50.158;8.642;2023-07-13T15:50:13;26.90;39.40
16404;DHT22;8311;50.158;8.642;2023-07-13T15:53:09;26.90;39.10
16404;DHT22;8311;50.158;8.642;2023-07-13T15:56:16;26.90;39.00
16404;DHT22;8311;50.158;8.642;2023-07-13T15:59:11;26.90;39.10
16404;DHT22;8311;50.158;8.642;2023-07-13T16:02:13;26.90;38.80
16404;DHT22;8311;50.158;8.642;2023-07-13T16:05:07;26.90;39.10
16404;DHT22;8311;50.158;8.642;2023-07-13T16:08:00;26.90;38.90
16404;DHT22;8311;50.158;8.642;2023-07-13T16:10:56;26.90;39.10
16404;DHT22;8311;50.158;8.642;2023-07-13T16:13:54;26.90;39.40
16404;DHT22;8311;50.158;8.642;2023-07-13T16:16:49;26.90;39.00
16404;DHT22;8311;50.158;8.642;2023-07-13T16:19:50;26.90;39.20
16404;DHT22;8311;50.158;8.642;2023-07-13T16:22:46;26.90;39.00
16404;DHT22;8311;50.158;8.642;2023-07-13T16:25:41;26.90;39.00
16404;DHT22;8311;50.158;8.642;2023-07-13T16:28:36;26.90;39.00
16404;DHT22;8311;50.158;8.642;2023-07-13T16:31:34;26.90;39.50
16404;DHT22;8311;50.158;8.642;2023-07-13T16:34:27;26.90;39.60
16404;DHT22;8311;50.158;8.642;2023-07-13T16:37:25;26.90;39.70
16404;DHT22;8311;50.158;8.642;2023-07-13T16:40:21;26.90;39.10
16404;DHT22;8311;50.158;8.642;2023-07-13T16:43:17;26.90;39.00
16404;DHT22;8311;50.158;8.642;2023-07-13T16:46:22;26.90;38.90
16404;DHT22;8311;50.158;8.642;2023-07-13T16:49:23;26.90;38.90
16404;DHT22;8311;50.158;8.642;2023-07-13T16:52:17;26.90;39.20
16404;DHT22;8311;50.158;8.642;2023-07-13T16:55:13;26.90;39.70
16404;DHT22;8311;50.158;8.642;2023-07-13T16:58:09;26.90;39.30
16404;DHT22;8311;50.158;8.642;2023-07-13T17:01:03;26.90;39.30
16404;DHT22;8311;50.158;8.642;2023-07-13T17:03:57;26.90;39.10
16404;DHT22;8311;50.158;8.642;2023-07-13T17:06:57;26.90;39.20
16404;DHT22;8311;50.158;8.642;2023-07-13T17:09:51;26.90;39.20
16404;DHT22;8311;50.158;8.642;2023-07-13T17:12:45;26.90;39.40
16404;DHT22;8311;50.158;8.642;2023-07-13T17:15:40;26.90;40.10
16404;DHT22;8311;50.158;8.642;2023-07-13T17:18:33;26.90;40.20
16404;DHT22;8311;50.158;8.642;2023-07-13T17:21:28;26.90;40.10
16404;DHT22;8311;50.158;8.642;2023-07-13T17:24:25;26.80;40.10
16404;DHT22;8311;50.158;8.642;2023-07-13T17:27:18;26.80;40.00
16404;DHT22;8311;50.158;8.642;2023-07-13T17:30:14;26.90;40.40
16404;DHT22;8311;50.158;8.642;2023-07-13T17:33:28;26.90;40.70
16404;DHT22;8311;50.158;8.642;2023-07-13T17:36:22;26.90;40.30
16404;DHT22;8311;50.158;8.642;2023-07-13T17:39:16;26.80;40.70
16404;DHT22;8311;50.158;8.642;2023-07-13T17:42:12;26.80;40.70
16404;DHT22;8311;50.158;8.642;2023-07-13T17:45:06;26.90;40.00
16404;DHT22;8311;50.158;8.642;2023-07-13T17:48:01;26.80;40.10
16404;DHT22;8311;50.158;8.642;2023-07-13T17:50:58;26.80;40.10
16404;DHT22;8311;50.158;8.642;2023-07-13T17:53:53;26.80;40.60
16404;DHT22;8311;50.158;8.642;2023-07-13T17:56:51;26.80;40.40
16404;DHT22;8311;50.158;8.642;2023-07-13T17:59:45;26.90;41.10
16404;DHT22;8311;50.158;8.642;2023-07-13T18:02:38;26.90;41.30
16404;DHT22;8311;50.158;8.642;2023-07-13T18:05:35;26.80;41.20
16404;DHT22;8311;50.158;8.642;2023-07-13T18:08:30;26.80;40.80
16404;DHT22;8311;50.158;8.642;2023-07-13T18:11:25;26.80;41.10
16404;DHT22;8311;50.158;8.642;2023-07-13T18:14:20;26.80;40.80
16404;DHT22;8311;50.158;8.642;2023-07-13T18:17:17;26.90;41.50
16404;DHT22;8311;50.158;8.642;2023-07-13T18:20:15;26.80;41.10
16404;DHT22;8311;50.158;8.642;2023-07-13T18:23:14;26.80;41.70
16404;DHT22;8311;50.158;8.642;2023-07-13T18:26:09;26.80;41.10
16404;DHT22;8311;50.158;8.642;2023-07-13T18:29:04;26.80;41.70
16404;DHT22;8311;50.158;8.642;2023-07-13T18:31:58;26.80;41.50
16404;DHT22;8311;50.158;8.642;2023-07-13T18:34:57;26.80;41.80
16404;DHT22;8311;50.158;8.642;2023-07-13T18:37:50;26.80;41.60
16404;DHT22;8311;50.158;8.642;2023-07-13T18:40:44;26.80;41.40
16404;DHT22;8311;50.158;8.642;2023-07-13T18:43:38;26.80;41.90
16404;DHT22;8311;50.158;8.642;2023-07-13T18:46:32;26.80;42.10
16404;DHT22;8311;50.158;8.642;2023-07-13T18:49:27;26.80;41.70
16404;DHT22;8311;50.158;8.642;2023-07-13T18:52:24;26.80;42.10